Time;durP1;ratioP1;P1;durP2;ratioP2;P2;SDS_P1;SDS_P2;PMS_P1;PMS_P2;Temp;Humidity;BMP_temperature;BMP_pressure;BME280_temperature;BME280_humidity;BME280_pressure;Samples;Min_cycle;Max_cycle;Signal;HPM_P1;HPM_P2
2023/09/27 00:01:00;;;;;;;9.53;7.87;;;24.80;48.80;;;;;;5119150;27;20441;-79
2023/09/27 00:03:28;;;;;;;9.90;8.00;;;24.80;48.90;;;;;;5120317;27;20418;-79
2023/09/27 00:05:58;;;;;;;8.93;7.90;;;24.80;48.80;;;;;;5117083;27;20449;-81
2023/09/27 00:08:26;;;;;;;8.17;7.37;;;24.80;48.60;;;;;;5124545;27;20421;-78
2023/09/27 00:10:54;;;;;;;9.30;7.90;;;24.80;49.00;;;;;;5117373;27;20465;-79
2023/09/27 00:13:22;;;;;;;8.10;7.00;;;24.70;48.90;;;;;;5114029;27;20426;-83
2023/09/27 00:15:50;;;;;;;10.00;7.20;;;24.70;48.80;;;;;;5123777;27;20452;-79
2023/09/27 00:18:18;;;;;;;8.27;7.20;;;24.70;48.70;;;;;;5113822;27;20493;-80
2023/09/27 00:20:46;;;;;;;8.10;7.30;;;24.70;48.70;;;;;;5131328;27;20441;-79
2023/09/27 00:23:15;;;;;;;8.10;7.30;;;24.70;48.80;;;;;;5112239;27;20871;-79
2023/09/27 00:25:44;;;;;;;7.40;6.50;;;24.60;48.90;;;;;;5103165;28;20487;-81
2023/09/27 00:28:12;;;;;;;8.30;7.43;;;24.60;48.80;;;;;;5110713;28;20454;-80
2023/09/27 00:30:40;;;;;;;8.33;7.37;;;24.60;49.00;;;;;;5074930;22;20534;-77
2023/09/27 00:33:08;;;;;;;8.47;7.57;;;24.60;48.80;;;;;;5032539;28;20527;-79
2023/09/27 00:35:36;;;;;;;9.20;7.70;;;24.60;48.80;;;;;;5037151;28;20414;-80
2023/09/27 00:38:06;;;;;;;9.00;7.70;;;24.60;48.90;;;;;;5036135;28;20881;-80
2023/09/27 00:40:40;;;;;;;7.07;6.37;;;24.50;48.80;;;;;;5027319;28;20834;-79
2023/09/27 00:43:08;;;;;;;7.23;6.60;;;24.50;48.90;;;;;;5028496;28;20525;-79
2023/09/27 00:45:37;;;;;;;7.77;7.03;;;24.50;49.00;;;;;;5034724;28;20442;-80
2023/09/27 00:48:06;;;;;;;11.60;7.03;;;24.50;48.90;;;;;;5035210;28;20444;-79
2023/09/27 00:50:35;;;;;;;8.20;7.30;;;24.50;48.90;;;;;;5028629;28;20978;-79
2023/09/27 00:53:03;;;;;;;8.10;7.10;;;24.50;48.90;;;;;;5036751;28;20505;-80
2023/09/27 00:55:31;;;;;;;8.77;7.87;;;24.50;48.90;;;;;;5035897;28;20455;-79
2023/09/27 00:58:02;;;;;;;8.40;7.20;;;24.50;48.80;;;;;;5035483;28;20422;-80
2023/09/27 01:00:31;;;;;;;8.07;7.07;;;24.40;48.80;;;;;;5033905;28;20475;-79
2023/09/27 01:02:59;;;;;;;7.70;6.90;;;24.40;48.80;;;;;;5035471;28;20426;-80
2023/09/27 01:05:27;;;;;;;7.37;6.67;;;24.40;48.90;;;;;;5036996;28;20462;-79
2023/09/27 01:07:54;;;;;;;8.30;7.50;;;24.30;48.80;;;;;;5038704;28;20414;-80
2023/09/27 01:10:22;;;;;;;8.50;7.30;;;24.30;48.80;;;;;;5038033;28;20462;-80
2023/09/27 01:12:51;;;;;;;16.60;12.87;;;24.30;48.80;;;;;;5039269;28;20471;-79
2023/09/27 01:15:20;;;;;;;19.03;14.90;;;24.30;48.90;;;;;;5043474;28;20446;-80
2023/09/27 01:17:53;;;;;;;24.40;17.60;;;24.30;48.80;;;;;;5034690;28;20454;-80
2023/09/27 01:20:21;;;;;;;27.07;18.93;;;24.30;48.80;;;;;;5034131;28;20839;-80
2023/09/27 01:22:56;;;;;;;26.50;19.30;;;24.30;49.00;;;;;;5033858;28;20435;-80
2023/09/27 01:25:26;;;;;;;27.07;19.47;;;24.30;48.80;;;;;;5022554;28;20436;-80
2023/09/27 01:27:55;;;;;;;33.10;22.63;;;24.30;48.80;;;;;;5022325;28;20409;-80
2023/09/27 01:30:24;;;;;;;32.00;22.20;;;24.30;48.90;;;;;;5038646;28;20464;-80
2023/09/27 01:32:52;;;;;;;32.10;23.27;;;24.30;48.90;;;;;;5029443;28;20506;-79
2023/09/27 01:35:20;;;;;;;30.67;22.33;;;24.30;48.70;;;;;;5035884;28;20426;-80
2023/09/27 01:37:48;;;;;;;32.73;23.50;;;24.20;48.80;;;;;;5042237;28;20413;-80
2023/09/27 01:40:17;;;;;;;32.63;24.13;;;24.20;48.70;;;;;;5040670;28;20451;-81
2023/09/27 01:42:46;;;;;;;34.00;24.53;;;24.20;48.70;;;;;;5051357;28;20445;-80
2023/09/27 01:45:13;;;;;;;38.40;26.33;;;24.20;48.80;;;;;;5061661;28;20469;-80
2023/09/27 01:47:41;;;;;;;34.27;25.33;;;24.20;48.70;;;;;;5039277;28;20410;-79
2023/09/27 01:50:12;;;;;;;37.40;25.63;;;24.20;48.80;;;;;;5039639;28;20455;-80
2023/09/27 01:52:40;;;;;;;35.40;25.27;;;24.10;48.70;;;;;;5037374;28;20481;-79
2023/09/27 01:55:09;;;;;;;35.77;24.73;;;24.10;48.70;;;;;;5047252;28;20440;-80
2023/09/27 01:57:38;;;;;;;41.00;26.37;;;24.10;48.80;;;;;;5036395;28;20507;-79
2023/09/27 02:00:11;;;;;;;36.30;24.57;;;24.10;48.80;;;;;;5047263;28;20996;-79
2023/09/27 02:02:39;;;;;;;35.30;24.77;;;24.10;48.90;;;;;;5041886;28;20471;-79
2023/09/27 02:05:08;;;;;;;34.90;24.80;;;24.00;48.80;;;;;;5040814;28;20823;-79
2023/09/27 02:07:37;;;;;;;38.43;24.90;;;24.10;48.90;;;;;;5054063;28;20445;-79
2023/09/27 02:10:05;;;;;;;34.10;24.67;;;24.10;48.90;;;;;;5037930;28;20450;-79
2023/09/27 02:12:33;;;;;;;36.50;25.10;;;24.00;48.80;;;;;;5044912;28;20523;-80
2023/09/27 02:15:03;;;;;;;34.37;24.17;;;24.00;48.80;;;;;;5057541;28;20423;-79
2023/09/27 02:17:31;;;;;;;38.20;26.07;;;24.00;48.70;;;;;;5046603;28;20426;-80
2023/09/27 02:20:00;;;;;;;37.73;23.57;;;24.00;48.90;;;;;;5042211;28;20460;-80
2023/09/27 02:22:29;;;;;;;36.07;24.87;;;23.90;48.80;;;;;;5048878;28;20442;-80
2023/09/27 02:24:57;;;;;;;34.67;23.73;;;23.90;48.80;;;;;;5051603;28;20477;-79
2023/09/27 02:27:25;;;;;;;33.37;23.20;;;24.00;48.80;;;;;;5049718;28;20438;-81
2023/09/27 02:29:54;;;;;;;31.70;22.63;;;23.90;48.80;;;;;;5060948;28;20504;-80
2023/09/27 02:32:24;;;;;;;33.27;23.50;;;23.90;48.80;;;;;;5056213;28;20493;-80
2023/09/27 02:34:52;;;;;;;31.30;22.90;;;23.90;48.80;;;;;;5041327;28;20430;-80
2023/09/27 02:37:20;;;;;;;33.03;23.40;;;23.90;48.80;;;;;;5050192;28;20442;-81
2023/09/27 02:39:48;;;;;;;36.90;24.70;;;23.90;48.80;;;;;;5047955;28;20904;-79
2023/09/27 02:42:17;;;;;;;36.10;25.57;;;23.80;48.80;;;;;;5046265;28;20519;-78
2023/09/27 02:44:47;;;;;;;35.50;24.77;;;23.80;48.70;;;;;;5035680;28;20450;-80
2023/09/27 02:47:17;;;;;;;34.60;24.87;;;23.80;49.00;;;;;;5061654;28;20405;-80
2023/09/27 02:49:48;;;;;;;34.50;24.40;;;23.80;48.90;;;;;;5053885;28;20477;-79
2023/09/27 02:52:16;;;;;;;34.20;23.93;;;23.80;48.90;;;;;;5052490;28;20473;-80
2023/09/27 02:54:45;;;;;;;35.07;24.23;;;23.80;48.90;;;;;;5058615;28;20444;-80
2023/09/27 02:57:13;;;;;;;33.37;24.40;;;23.80;48.80;;;;;;5060180;28;20442;-80
2023/09/27 02:59:42;;;;;;;35.80;24.50;;;23.80;48.60;;;;;;5049978;28;20458;-80
2023/09/27 03:02:10;;;;;;;32.70;23.23;;;23.70;48.90;;;;;;5053472;28;20458;-79
2023/09/27 03:04:40;;;;;;;32.27;23.13;;;23.70;48.80;;;;;;5051051;28;20446;-80
2023/09/27 03:07:11;;;;;;;32.30;22.90;;;23.70;48.80;;;;;;5059586;28;20447;-79
2023/09/27 03:09:39;;;;;;;35.40;23.90;;;23.70;48.80;;;;;;5052875;28;20482;-79
2023/09/27 03:12:07;;;;;;;34.30;23.57;;;23.70;48.90;;;;;;5054301;28;20471;-78
2023/09/27 03:14:35;;;;;;;30.70;22.20;;;23.70;49.00;;;;;;5051274;28;20414;-79
2023/09/27 03:17:03;;;;;;;31.37;23.30;;;23.70;48.80;;;;;;5053058;28;20528;-78
2023/09/27 03:19:31;;;;;;;30.57;22.27;;;23.70;48.70;;;;;;5044214;28;20466;-80
2023/09/27 03:21:59;;;;;;;31.10;22.63;;;23.70;48.60;;;;;;5054029;28;20411;-80
2023/09/27 03:24:29;;;;;;;33.13;22.50;;;23.60;48.90;;;;;;5045876;28;20438;-79
2023/09/27 03:26:57;;;;;;;30.63;21.57;;;23.60;48.90;;;;;;5049968;28;20401;-79
2023/09/27 03:29:25;;;;;;;30.47;21.80;;;23.60;48.80;;;;;;5032363;28;20438;-79
2023/09/27 03:31:53;;;;;;;30.60;22.30;;;23.60;48.90;;;;;;5042142;28;20460;-80
2023/09/27 03:34:21;;;;;;;29.13;22.40;;;23.60;48.70;;;;;;5047004;28;20459;-80
2023/09/27 03:36:55;;;;;;;27.00;20.50;;;23.60;48.90;;;;;;5038278;28;20446;-80
2023/09/27 03:39:23;;;;;;;28.97;20.50;;;23.60;48.90;;;;;;5046279;28;20540;-79
2023/09/27 03:41:53;;;;;;;31.40;21.20;;;23.60;48.90;;;;;;5057885;28;20450;-80
2023/09/27 03:44:21;;;;;;;28.93;20.77;;;23.50;48.90;;;;;;5043122;28;20459;-80
2023/09/27 03:46:50;;;;;;;28.50;20.60;;;23.50;48.80;;;;;;5040040;28;20406;-80
2023/09/27 03:49:18;;;;;;;29.53;21.20;;;23.50;48.80;;;;;;5045135;28;20431;-80
2023/09/27 03:51:46;;;;;;;27.60;20.53;;;23.50;48.80;;;;;;5044902;28;20483;-79
2023/09/27 03:54:14;;;;;;;28.93;20.43;;;23.50;48.80;;;;;;5046439;28;20471;-79
2023/09/27 03:56:42;;;;;;;28.10;19.93;;;23.50;48.80;;;;;;5035079;28;20468;-78
2023/09/27 03:59:13;;;;;;;26.00;19.17;;;23.50;48.90;;;;;;5034393;28;20413;-79
2023/09/27 04:01:41;;;;;;;25.07;18.90;;;23.50;48.80;;;;;;5043699;28;20486;-78
2023/09/27 04:04:10;;;;;;;27.30;19.63;;;23.50;48.80;;;;;;5025676;28;20451;-78
2023/09/27 04:06:38;;;;;;;26.90;19.50;;;23.40;48.80;;;;;;5036812;28;20445;-78
2023/09/27 04:09:08;;;;;;;26.47;18.93;;;23.50;48.80;;;;;;5035744;28;20426;-78
2023/09/27 04:11:36;;;;;;;28.23;20.47;;;23.50;48.80;;;;;;5023920;28;20817;-78
2023/09/27 04:14:05;;;;;;;26.20;18.77;;;23.40;48.80;;;;;;5046905;28;20471;-77
2023/09/27 04:16:35;;;;;;;24.53;18.23;;;23.40;48.70;;;;;;5048616;28;20425;-79
2023/09/27 04:19:04;;;;;;;27.37;19.17;;;23.40;48.80;;;;;;5037927;28;20459;-79
2023/09/27 04:21:32;;;;;;;24.87;18.83;;;23.40;48.70;;;;;;5053354;28;20473;-78
2023/09/27 04:24:03;;;;;;;24.23;17.93;;;23.40;48.70;;;;;;5044546;28;20470;-78
2023/09/27 04:26:31;;;;;;;22.60;18.03;;;23.40;48.80;;;;;;5039560;28;20466;-79
2023/09/27 04:29:00;;;;;;;24.60;18.23;;;23.30;48.60;;;;;;5039651;28;20447;-78
2023/09/27 04:31:28;;;;;;;24.20;17.50;;;23.30;48.80;;;;;;5041503;28;20475;-78
2023/09/27 04:33:57;;;;;;;21.27;16.70;;;23.30;48.70;;;;;;5021059;28;20550;-78
2023/09/27 04:36:25;;;;;;;26.07;18.50;;;23.30;48.90;;;;;;5028856;28;20494;-78
2023/09/27 04:38:53;;;;;;;22.50;17.37;;;23.30;48.60;;;;;;5049668;28;20523;-78
2023/09/27 04:41:21;;;;;;;23.77;17.10;;;23.30;48.90;;;;;;5024060;28;21007;-79
2023/09/27 04:43:49;;;;;;;23.70;17.60;;;23.20;48.90;;;;;;5034020;28;20454;-78
2023/09/27 04:46:18;;;;;;;25.73;18.60;;;23.20;48.90;;;;;;5052948;28;20873;-79
2023/09/27 04:48:47;;;;;;;22.60;16.53;;;23.30;48.90;;;;;;5040418;28;20534;-78
2023/09/27 04:51:16;;;;;;;21.90;16.60;;;23.20;48.60;;;;;;5032912;28;20537;-78
2023/09/27 04:53:44;;;;;;;23.00;16.47;;;23.20;48.70;;;;;;5051235;28;20564;-78
2023/09/27 04:56:12;;;;;;;21.87;16.67;;;23.20;48.90;;;;;;5038470;28;20452;-78
2023/09/27 04:58:41;;;;;;;20.73;15.80;;;23.20;48.70;;;;;;5033197;28;20497;-78
2023/09/27 05:01:09;;;;;;;21.17;16.23;;;23.20;49.00;;;;;;5053487;28;20468;-79
2023/09/27 05:03:37;;;;;;;20.77;16.07;;;23.20;49.00;;;;;;5035916;28;20440;-78
2023/09/27 05:06:06;;;;;;;24.90;16.97;;;23.20;48.80;;;;;;5040713;28;20445;-78
2023/09/27 05:08:35;;;;;;;19.83;16.03;;;23.10;48.50;;;;;;5053553;28;20481;-79
2023/09/27 05:11:03;;;;;;;22.30;16.00;;;23.10;48.80;;;;;;5037461;28;20441;-78
2023/09/27 05:13:32;;;;;;;21.80;15.80;;;23.10;48.90;;;;;;5023351;28;20448;-78
2023/09/27 05:16:00;;;;;;;19.03;14.83;;;23.10;48.60;;;;;;5039372;28;20477;-78
2023/09/27 05:18:28;;;;;;;18.70;14.70;;;23.10;48.80;;;;;;5051416;28;20435;-78
2023/09/27 05:20:59;;;;;;;18.50;14.10;;;23.10;49.00;;;;;;5050080;28;20458;-79
2023/09/27 05:23:28;;;;;;;20.50;15.50;;;23.10;48.70;;;;;;5047334;28;20513;-78
2023/09/27 05:25:57;;;;;;;19.33;14.60;;;23.10;48.70;;;;;;5036289;28;20431;-78
2023/09/27 05:28:25;;;;;;;21.50;15.40;;;23.10;49.30;;;;;;5051215;28;20431;-78
2023/09/27 05:30:53;;;;;;;18.70;14.73;;;23.10;49.60;;;;;;5039203;28;20985;-78
2023/09/27 05:33:22;;;;;;;16.67;13.40;;;23.10;48.60;;;;;;5043297;28;20517;-77
2023/09/27 05:35:50;;;;;;;20.50;13.70;;;23.10;48.50;;;;;;5044541;28;20465;-77
2023/09/27 05:38:18;;;;;;;16.90;13.30;;;23.10;48.70;;;;;;5040632;28;20445;-78
2023/09/27 05:40:46;;;;;;;20.07;14.87;;;23.10;48.70;;;;;;5042650;28;20433;-77
2023/09/27 05:43:15;;;;;;;18.63;14.23;;;23.00;48.60;;;;;;5039870;28;20496;-78
2023/09/27 05:45:43;;;;;;;18.10;14.20;;;23.00;48.60;;;;;;5048492;28;20492;-79
2023/09/27 05:48:13;;;;;;;16.83;13.07;;;23.10;48.70;;;;;;5047078;28;20458;-79
2023/09/27 05:50:44;;;;;;;18.13;13.10;;;23.10;48.50;;;;;;5036020;28;20568;-80
2023/09/27 05:53:12;;;;;;;17.83;13.73;;;23.10;48.60;;;;;;5037104;28;20545;-79
2023/09/27 05:55:42;;;;;;;17.70;13.97;;;23.00;48.50;;;;;;5037155;28;20447;-78
2023/09/27 05:58:10;;;;;;;20.23;13.90;;;23.10;48.50;;;;;;5036857;28;20868;-77
2023/09/27 06:00:46;;;;;;;17.70;14.10;;;23.10;48.50;;;;;;5034433;28;20446;-79
2023/09/27 06:03:14;;;;;;;16.23;12.70;;;23.00;48.60;;;;;;5037058;28;20534;-79
2023/09/27 06:05:42;;;;;;;17.87;13.90;;;23.10;48.40;;;;;;5029466;28;20573;-78
2023/09/27 06:08:10;;;;;;;18.40;13.40;;;23.10;48.50;;;;;;5034954;28;20407;-78
2023/09/27 06:10:40;;;;;;;16.00;12.83;;;23.00;48.50;;;;;;5035351;28;20473;-78
2023/09/27 06:13:10;;;;;;;19.13;12.43;;;23.10;48.60;;;;;;5026374;28;20419;-77
2023/09/27 06:15:40;;;;;;;16.20;12.90;;;23.10;48.60;;;;;;5033672;28;20402;-77
2023/09/27 06:18:08;;;;;;;16.90;12.60;;;23.10;48.50;;;;;;5033061;28;20439;-77
2023/09/27 06:20:38;;;;;;;16.33;12.60;;;23.10;48.70;;;;;;5034815;28;20467;-78
2023/09/27 06:23:06;;;;;;;18.43;13.63;;;23.10;48.70;;;;;;5023749;28;20525;-77
2023/09/27 06:25:35;;;;;;;15.40;12.73;;;23.10;48.30;;;;;;5033306;28;20422;-79
2023/09/27 06:28:03;;;;;;;16.73;12.90;;;23.20;48.40;;;;;;5033347;28;20442;-76
2023/09/27 06:30:31;;;;;;;16.73;12.50;;;23.10;48.40;;;;;;5034985;28;20445;-77
2023/09/27 06:33:01;;;;;;;16.57;12.23;;;23.10;48.40;;;;;;5035056;28;20429;-80
2023/09/27 06:35:37;;;;;;;15.03;12.30;;;23.20;48.50;;;;;;5033000;28;21049;-77
2023/09/27 06:38:05;;;;;;;13.93;11.77;;;23.20;49.10;;;;;;5034013;28;20435;-78
2023/09/27 06:40:36;;;;;;;14.60;11.97;;;23.20;48.40;;;;;;5028655;28;20912;-78
2023/09/27 06:43:04;;;;;;;16.43;12.43;;;23.20;48.40;;;;;;5034121;28;20440;-78
2023/09/27 06:45:33;;;;;;;15.30;11.60;;;23.30;48.50;;;;;;5035464;28;20435;-78
2023/09/27 06:48:03;;;;;;;13.73;11.73;;;23.30;48.30;;;;;;5035377;28;20494;-78
2023/09/27 06:50:34;;;;;;;16.97;11.90;;;23.40;48.20;;;;;;5034485;28;20475;-78
2023/09/27 06:53:03;;;;;;;15.97;12.70;;;23.40;48.30;;;;;;5032830;28;20501;-77
2023/09/27 06:55:49;;;;;;;17.13;12.23;;;23.50;48.00;;;;;;5035919;28;20471;-78
2023/09/27 06:58:22;;;;;;;13.67;11.47;;;23.50;48.10;;;;;;5033392;28;20479;-78
2023/09/27 07:00:52;;;;;;;15.80;13.00;;;23.60;48.10;;;;;;5032996;28;20463;-78
2023/09/27 07:03:24;;;;;;;15.27;12.10;;;23.60;48.00;;;;;;5035102;28;20442;-78
2023/09/27 07:05:53;;;;;;;15.37;12.23;;;23.70;47.90;;;;;;5029975;28;20459;-79
2023/09/27 07:08:22;;;;;;;16.33;12.07;;;23.70;47.90;;;;;;5035152;28;20471;-78
2023/09/27 07:10:50;;;;;;;15.80;11.80;;;23.80;47.90;;;;;;5033805;28;20437;-77
2023/09/27 07:13:18;;;;;;;16.67;12.13;;;23.80;47.90;;;;;;5033057;28;20444;-77
2023/09/27 07:15:48;;;;;;;14.20;11.17;;;23.90;47.80;;;;;;5029492;28;20502;-78
2023/09/27 07:18:35;;;;;;;12.93;10.40;;;23.90;47.80;;;;;;5032553;28;20440;-77
2023/09/27 07:21:20;;;;;;;13.70;11.30;;;24.00;48.00;;;;;;5030537;28;20486;-77
2023/09/27 07:23:49;;;;;;;13.33;10.70;;;24.00;47.90;;;;;;5033839;28;20475;-78
2023/09/27 07:26:20;;;;;;;15.30;11.30;;;24.10;48.00;;;;;;5034485;28;20452;-77
2023/09/27 07:28:48;;;;;;;13.77;10.80;;;24.10;47.90;;;;;;5035067;28;20454;-78
2023/09/27 07:31:17;;;;;;;14.50;11.60;;;24.10;47.90;;;;;;5034943;28;20571;-77
2023/09/27 07:33:52;;;;;;;13.20;10.80;;;24.10;47.90;;;;;;5035076;28;20461;-79
2023/09/27 07:36:25;;;;;;;15.10;10.50;;;24.10;48.00;;;;;;5037099;28;20439;-80
2023/09/27 07:38:55;;;;;;;14.17;11.00;;;24.20;48.20;;;;;;5038966;28;20415;-80
2023/09/27 07:41:25;;;;;;;12.93;10.47;;;24.30;48.30;;;;;;5038351;28;20467;-79
2023/09/27 07:44:10;;;;;;;13.20;10.43;;;24.30;48.10;;;;;;5038247;28;20446;-80
2023/09/27 07:46:41;;;;;;;11.23;9.87;;;24.30;48.10;;;;;;5038362;28;20437;-81
2023/09/27 07:49:11;;;;;;;11.80;9.93;;;24.40;48.10;;;;;;5034393;28;20452;-79
2023/09/27 07:51:39;;;;;;;13.40;9.80;;;24.40;48.20;;;;;;5032273;28;20444;-80
2023/09/27 07:54:08;;;;;;;11.23;9.50;;;24.50;48.10;;;;;;5032003;28;20453;-81
2023/09/27 07:56:46;;;;;;;10.63;9.37;;;24.50;49.10;;;;;;5015810;28;20423;-80
2023/09/27 07:59:16;;;;;;;11.63;10.37;;;24.60;48.60;;;;;;5020631;28;20426;-79
2023/09/27 08:01:45;;;;;;;11.80;10.20;;;24.70;48.70;;;;;;5026608;28;20521;-79
2023/09/27 08:04:16;;;;;;;12.63;10.20;;;24.80;48.60;;;;;;5014170;28;20483;-79
2023/09/27 08:06:46;;;;;;;13.20;10.03;;;24.90;48.50;;;;;;5019633;28;20460;-78
2023/09/27 08:09:15;;;;;;;10.63;9.47;;;25.00;48.50;;;;;;5015471;28;20444;-78
2023/09/27 08:12:03;;;;;;;10.20;8.60;;;25.00;48.40;;;;;;5032472;28;20422;-78
2023/09/27 08:14:36;;;;;;;12.63;9.30;;;25.20;48.40;;;;;;5018164;28;20456;-78
2023/09/27 08:17:11;;;;;;;10.00;8.87;;;25.40;48.50;;;;;;5035897;28;20440;-79
2023/09/27 08:19:45;;;;;;;12.20;9.00;;;25.60;48.60;;;;;;5035996;28;20434;-80
2023/09/27 08:22:14;;;;;;;16.00;8.57;;;25.80;48.40;;;;;;5024704;28;20507;-80
2023/09/27 08:24:42;;;;;;;9.37;8.37;;;25.90;48.20;;;;;;5013129;28;20426;-81
2023/09/27 08:27:11;;;;;;;9.77;8.63;;;26.10;48.10;;;;;;5024294;28;20418;-80
2023/09/27 08:29:39;;;;;;;9.70;8.80;;;26.20;47.90;;;;;;5025053;28;20572;-80
2023/09/27 08:32:08;;;;;;;9.90;8.90;;;26.20;47.90;;;;;;5023845;28;20539;-81
2023/09/27 08:34:36;;;;;;;10.00;9.00;;;26.20;48.00;;;;;;5013931;28;20426;-80
2023/09/27 08:37:06;;;;;;;9.03;7.83;;;26.30;47.90;;;;;;5016024;28;20579;-79
2023/09/27 08:39:34;;;;;;;8.90;8.10;;;26.30;47.90;;;;;;5020552;28;20533;-80
2023/09/27 08:42:03;;;;;;;9.23;7.97;;;26.40;48.00;;;;;;5028200;28;20445;-80
2023/09/27 08:44:31;;;;;;;10.53;8.40;;;26.60;48.00;;;;;;5037524;28;20423;-80
2023/09/27 08:46:59;;;;;;;8.80;7.87;;;26.70;47.90;;;;;;5038132;28;20440;-80
2023/09/27 08:49:27;;;;;;;8.30;7.50;;;26.80;47.90;;;;;;5037771;28;20446;-80
2023/09/27 08:51:57;;;;;;;8.50;7.53;;;27.00;48.00;;;;;;5040359;28;20514;-80
2023/09/27 08:54:27;;;;;;;8.40;7.70;;;27.10;47.80;;;;;;5021708;28;20419;-81
2023/09/27 08:56:55;;;;;;;8.13;7.37;;;27.20;47.70;;;;;;5036581;28;20475;-80
2023/09/27 08:59:24;;;;;;;7.90;7.10;;;27.20;47.60;;;;;;5040175;28;20454;-78
2023/09/27 09:01:53;;;;;;;8.40;7.60;;;27.20;47.70;;;;;;5040736;28;20481;-80
2023/09/27 09:04:22;;;;;;;8.40;7.33;;;27.20;47.60;;;;;;5041500;28;20422;-81
2023/09/27 09:06:50;;;;;;;8.07;7.27;;;27.30;47.70;;;;;;5040696;28;20414;-80
2023/09/27 09:09:19;;;;;;;8.40;7.53;;;27.30;47.60;;;;;;5033846;28;20436;-80
2023/09/27 09:11:48;;;;;;;8.23;7.50;;;27.30;47.60;;;;;;5039539;28;20414;-79
2023/09/27 09:14:18;;;;;;;9.93;7.10;;;27.40;47.60;;;;;;5037322;28;20534;-79
2023/09/27 09:16:51;;;;;;;8.90;7.53;;;27.40;47.70;;;;;;5037405;28;20474;-79
2023/09/27 09:19:22;;;;;;;7.57;6.87;;;27.40;47.60;;;;;;5037914;28;20429;-79
2023/09/27 09:22:11;;;;;;;8.40;7.60;;;27.40;47.60;;;;;;5019557;28;20442;-79
2023/09/27 09:24:41;;;;;;;8.33;6.83;;;27.50;47.70;;;;;;5020355;28;20415;-79
2023/09/27 09:27:11;;;;;;;8.10;7.30;;;27.50;47.70;;;;;;5020854;28;20439;-78
2023/09/27 09:29:47;;;;;;;7.73;7.00;;;27.60;47.80;;;;;;5022258;28;20484;-80
2023/09/27 09:32:17;;;;;;;7.10;6.37;;;27.60;47.80;;;;;;5037270;28;20484;-80
2023/09/27 09:34:48;;;;;;;7.57;6.83;;;27.70;47.50;;;;;;5038597;28;20436;-80
2023/09/27 09:37:18;;;;;;;7.30;6.60;;;27.80;47.60;;;;;;5030023;28;20981;-79
2023/09/27 09:39:46;;;;;;;12.07;6.97;;;27.80;47.60;;;;;;5024581;28;20447;-80
2023/09/27 09:42:29;;;;;;;7.23;6.53;;;28.00;47.80;;;;;;5027577;28;20463;-80
2023/09/27 09:45:02;;;;;;;8.07;7.20;;;28.10;47.80;;;;;;5019463;28;20411;-80
2023/09/27 09:47:30;;;;;;;7.40;6.70;;;28.30;47.80;;;;;;5027612;28;20414;-80
2023/09/27 09:50:17;;;;;;;6.87;6.27;;;28.60;47.70;;;;;;5020454;28;20455;-80
2023/09/27 09:52:52;;;;;;;7.77;6.90;;;28.90;47.80;;;;;;5020358;28;20478;-80
2023/09/27 09:55:21;;;;;;;6.77;6.17;;;29.20;47.50;;;;;;5017760;28;20431;-80
2023/09/27 09:58:17;;;;;;;6.70;6.10;;;29.50;47.30;;;;;;5019740;28;20433;-80
2023/09/27 10:00:49;;;;;;;6.17;5.70;;;29.70;46.90;;;;;;5019847;28;20834;-79
2023/09/27 10:03:25;;;;;;;10.27;6.33;;;30.00;46.60;;;;;;5028421;28;20505;-79
2023/09/27 10:05:53;;;;;;;5.77;5.37;;;30.10;46.40;;;;;;5027787;28;20901;-78
2023/09/27 10:08:23;;;;;;;6.23;5.67;;;30.30;46.30;;;;;;5032757;28;20409;-80
2023/09/27 10:10:56;;;;;;;5.70;5.20;;;30.50;46.30;;;;;;5027916;28;20468;-78
2023/09/27 10:13:28;;;;;;;5.90;5.47;;;30.70;46.20;;;;;;5025984;28;20443;-80
2023/09/27 10:16:07;;;;;;;6.10;5.60;;;31.00;46.00;;;;;;5035455;28;20468;-79
2023/09/27 10:18:46;;;;;;;6.40;5.80;;;31.20;45.60;;;;;;5035730;28;20414;-80
2023/09/27 10:21:23;;;;;;;5.93;5.47;;;31.30;45.30;;;;;;5039993;28;20474;-78
2023/09/27 10:24:00;;;;;;;5.37;4.97;;;31.40;45.20;;;;;;5026646;28;20423;-79
2023/09/27 10:26:35;;;;;;;5.10;4.80;;;31.50;45.10;;;;;;5045233;28;20443;-79
2023/09/27 10:29:29;;;;;;;5.00;4.60;;;31.60;45.20;;;;;;5041032;28;20549;-78
2023/09/27 10:32:21;;;;;;;5.70;5.20;;;31.80;45.30;;;;;;5043682;28;20493;-79
2023/09/27 10:34:51;;;;;;;4.83;4.43;;;32.10;45.20;;;;;;5040806;28;20446;-79
2023/09/27 10:37:59;;;;;;;6.07;5.57;;;32.50;44.90;;;;;;5040313;28;20471;-79
2023/09/27 10:40:28;;;;;;;5.03;4.70;;;32.80;44.60;;;;;;5041650;28;20448;-79
2023/09/27 10:42:56;;;;;;;5.67;4.77;;;33.30;44.20;;;;;;5042065;28;20439;-79
2023/09/27 10:45:32;;;;;;;5.00;4.67;;;33.60;43.70;;;;;;5044185;28;20507;-79
2023/09/27 10:48:19;;;;;;;5.47;5.07;;;33.80;43.30;;;;;;5040920;28;20581;-78
2023/09/27 10:50:52;;;;;;;4.37;4.07;;;34.00;43.00;;;;;;5037442;28;20570;-80
2023/09/27 10:53:25;;;;;;;4.63;4.33;;;34.10;42.70;;;;;;5025818;28;20447;-80
2023/09/27 10:55:56;;;;;;;6.33;4.17;;;34.20;42.40;;;;;;5031169;28;20448;-79
2023/09/27 10:58:34;;;;;;;4.23;3.93;;;34.10;42.30;;;;;;5037371;28;20501;-79
2023/09/27 11:01:22;;;;;;;6.13;4.47;;;34.10;42.40;;;;;;5037680;28;20458;-78
2023/09/27 11:04:01;;;;;;;4.50;4.20;;;34.10;42.50;;;;;;5042954;28;20684;-81
2023/09/27 11:06:39;;;;;;;4.90;4.60;;;34.00;42.40;;;;;;5041425;28;20585;-79
2023/09/27 11:09:23;;;;;;;4.50;4.20;;;33.90;42.40;;;;;;5042538;28;20540;-79
2023/09/27 11:11:57;;;;;;;4.20;4.00;;;34.00;42.50;;;;;;5052003;28;20447;-79
2023/09/27 11:14:31;;;;;;;4.80;4.50;;;34.00;42.70;;;;;;5035208;28;20459;-78
2023/09/27 11:17:23;;;;;;;4.13;3.73;;;34.10;42.50;;;;;;5032901;28;20536;-79
2023/09/27 11:19:58;;;;;;;4.67;4.20;;;35.10;41.40;;;;;;5033653;28;20498;-78
2023/09/27 11:22:29;;;;;;;3.93;3.73;;;36.20;41.00;;;;;;5036359;28;20449;-78
2023/09/27 11:25:05;;;;;;;3.93;3.73;;;36.90;39.80;;;;;;5033802;28;20446;-78
2023/09/27 11:27:34;;;;;;;5.60;4.17;;;37.20;38.80;;;;;;5033261;28;20471;-78
2023/09/27 11:30:15;;;;;;;3.30;3.10;;;37.50;38.80;;;;;;5035042;28;20490;-80
2023/09/27 11:32:57;;;;;;;3.30;3.10;;;38.10;38.40;;;;;;5033055;28;20510;-78
2023/09/27 11:35:26;;;;;;;3.50;3.40;;;38.60;36.40;;;;;;5030819;28;20455;-78
2023/09/27 11:38:22;;;;;;;3.97;3.77;;;37.80;36.30;;;;;;5030985;28;20439;-79
2023/09/27 11:41:14;;;;;;;3.50;3.40;;;37.20;37.30;;;;;;5026628;28;20521;-78
2023/09/27 11:43:52;;;;;;;3.87;3.57;;;36.80;37.90;;;;;;5031612;28;20438;-79
2023/09/27 11:46:31;;;;;;;3.60;3.40;;;37.30;38.70;;;;;;5031020;28;20452;-77
2023/09/27 11:49:09;;;;;;;2.93;2.83;;;38.80;37.60;;;;;;5034291;28;20538;-77
2023/09/27 11:51:37;;;;;;;3.17;2.97;;;39.30;34.50;;;;;;5032199;28;20539;-77
2023/09/27 11:54:09;;;;;;;3.70;3.50;;;38.60;35.20;;;;;;5029155;28;20523;-78
2023/09/27 11:56:44;;;;;;;3.73;3.53;;;38.00;36.00;;;;;;5030550;28;20846;-78
2023/09/27 11:59:15;;;;;;;4.00;3.70;;;37.50;36.60;;;;;;5033827;28;20526;-78
2023/09/27 12:01:43;;;;;;;3.40;3.30;;;37.20;37.80;;;;;;5030289;28;20436;-79
2023/09/27 12:04:12;;;;;;;3.43;3.33;;;38.70;37.60;;;;;;5026084;28;20452;-78
2023/09/27 12:06:41;;;;;;;3.33;3.23;;;40.40;35.20;;;;;;5030621;28;20920;-79
2023/09/27 12:09:09;;;;;;;2.90;2.80;;;41.50;33.60;;;;;;5023419;28;20454;-77
2023/09/27 12:11:37;;;;;;;2.83;2.70;;;42.40;31.40;;;;;;5033241;28;20518;-78
2023/09/27 12:14:07;;;;;;;2.67;2.57;;;42.20;31.80;;;;;;5029668;28;20443;-77
2023/09/27 12:16:35;;;;;;;3.20;3.00;;;42.00;31.60;;;;;;5031823;28;20472;-77
2023/09/27 12:19:03;;;;;;;3.13;2.93;;;41.00;32.00;;;;;;5016464;28;20431;-79
2023/09/27 12:21:34;;;;;;;3.40;3.30;;;39.90;33.00;;;;;;5034151;28;20513;-77
2023/09/27 12:24:03;;;;;;;3.33;3.23;;;39.00;34.30;;;;;;5034957;28;20466;-77
2023/09/27 12:26:31;;;;;;;3.20;3.10;;;38.60;35.60;;;;;;5037915;28;20447;-79
2023/09/27 12:28:59;;;;;;;3.67;3.47;;;38.60;35.60;;;;;;5039349;28;20424;-79
2023/09/27 12:31:26;;;;;;;3.00;2.90;;;38.80;36.20;;;;;;5042361;28;20471;-79
2023/09/27 12:33:55;;;;;;;3.30;3.20;;;39.70;34.60;;;;;;5041973;28;20449;-79
2023/09/27 12:36:23;;;;;;;3.67;3.47;;;39.40;34.20;;;;;;5041919;28;20465;-80
2023/09/27 12:38:53;;;;;;;4.00;3.70;;;38.90;34.50;;;;;;5041205;28;20440;-79
2023/09/27 12:41:24;;;;;;;4.00;3.70;;;38.30;35.50;;;;;;5039698;28;20473;-79
2023/09/27 12:43:53;;;;;;;3.20;3.00;;;37.70;36.20;;;;;;5038533;28;20473;-78
2023/09/27 12:46:21;;;;;;;3.80;3.50;;;37.30;37.10;;;;;;5028279;28;20471;-79
2023/09/27 12:48:49;;;;;;;3.60;3.40;;;37.00;37.50;;;;;;5020449;28;20463;-78
2023/09/27 12:51:17;;;;;;;3.77;3.60;;;36.80;37.60;;;;;;5029185;28;20465;-78
2023/09/27 12:53:45;;;;;;;3.60;3.30;;;36.50;38.10;;;;;;5023371;28;20447;-77